sensor_id;sensor_type;location;lat;lon;timestamp;temperature;humidity
70074;DHT22;57445;51.058;3.698;2022-08-19T00:01:03;20.40;90.60
70074;DHT22;57445;51.058;3.698;2022-08-19T00:03:37;20.50;90.50
70074;DHT22;57445;51.058;3.698;2022-08-19T00:06:05;20.50;90.50
70074;DHT22;57445;51.058;3.698;2022-08-19T00:08:33;20.60;90.30
70074;DHT22;57445;51.058;3.698;2022-08-19T00:11:00;20.70;90.20
70074;DHT22;57445;51.058;3.698;2022-08-19T00:13:33;20.70;90.10
70074;DHT22;57445;51.058;3.698;2022-08-19T00:16:01;20.70;90.10
70074;DHT22;57445;51.058;3.698;2022-08-19T00:18:31;20.60;90.30
70074;DHT22;57445;51.058;3.698;2022-08-19T00:21:00;20.50;90.80
70074;DHT22;57445;51.058;3.698;2022-08-19T00:23:30;20.30;91.00
70074;DHT22;57445;51.058;3.698;2022-08-19T00:26:05;20.20;91.40
70074;DHT22;57445;51.058;3.698;2022-08-19T00:28:33;20.20;91.40
70074;DHT22;57445;51.058;3.698;2022-08-19T00:31:07;20.20;91.20
70074;DHT22;57445;51.058;3.698;2022-08-19T00:33:42;20.10;91.40
70074;DHT22;57445;51.058;3.698;2022-08-19T00:36:13;20.10;91.50
70074;DHT22;57445;51.058;3.698;2022-08-19T00:38:41;20.00;91.50
70074;DHT22;57445;51.058;3.698;2022-08-19T00:41:16;20.20;91.30
70074;DHT22;57445;51.058;3.698;2022-08-19T00:43:58;20.20;91.10
70074;DHT22;57445;51.058;3.698;2022-08-19T00:46:27;20.20;91.10
70074;DHT22;57445;51.058;3.698;2022-08-19T00:48:56;20.10;91.40
70074;DHT22;57445;51.058;3.698;2022-08-19T00:51:28;20.00;91.40
70074;DHT22;57445;51.058;3.698;2022-08-19T00:54:00;19.90;91.50
70074;DHT22;57445;51.058;3.698;2022-08-19T00:56:29;19.90;91.60
70074;DHT22;57445;51.058;3.698;2022-08-19T00:59:02;19.90;91.50
70074;DHT22;57445;51.058;3.698;2022-08-19T01:01:35;20.20;90.90
70074;DHT22;57445;51.058;3.698;2022-08-19T01:04:07;20.40;90.50
70074;DHT22;57445;51.058;3.698;2022-08-19T01:06:42;20.60;90.00
70074;DHT22;57445;51.058;3.698;2022-08-19T01:09:09;20.80;88.90
70074;DHT22;57445;51.058;3.698;2022-08-19T01:11:40;20.70;89.10
70074;DHT22;57445;51.058;3.698;2022-08-19T01:14:10;20.40;90.20
70074;DHT22;57445;51.058;3.698;2022-08-19T01:16:43;20.10;90.70
70074;DHT22;57445;51.058;3.698;2022-08-19T01:19:23;20.00;90.90
70074;DHT22;57445;51.058;3.698;2022-08-19T01:22:02;19.90;91.00
70074;DHT22;57445;51.058;3.698;2022-08-19T01:24:36;19.90;91.20
70074;DHT22;57445;51.058;3.698;2022-08-19T01:27:04;19.70;91.50
70074;DHT22;57445;51.058;3.698;2022-08-19T01:29:32;19.60;91.70
70074;DHT22;57445;51.058;3.698;2022-08-19T01:32:01;19.50;91.90
70074;DHT22;57445;51.058;3.698;2022-08-19T01:34:33;19.50;91.90
70074;DHT22;57445;51.058;3.698;2022-08-19T01:37:07;19.50;91.90
70074;DHT22;57445;51.058;3.698;2022-08-19T01:39:39;19.60;91.70
70074;DHT22;57445;51.058;3.698;2022-08-19T01:42:12;19.80;91.30
70074;DHT22;57445;51.058;3.698;2022-08-19T01:44:40;19.80;91.20
70074;DHT22;57445;51.058;3.698;2022-08-19T01:47:08;19.70;91.40
70074;DHT22;57445;51.058;3.698;2022-08-19T01:49:37;19.50;91.60
70074;DHT22;57445;51.058;3.698;2022-08-19T01:52:05;19.60;91.50
70074;DHT22;57445;51.058;3.698;2022-08-19T01:54:33;19.80;91.30
70074;DHT22;57445;51.058;3.698;2022-08-19T01:57:07;19.70;91.30
70074;DHT22;57445;51.058;3.698;2022-08-19T01:59:41;19.70;91.40
70074;DHT22;57445;51.058;3.698;2022-08-19T02:02:09;19.80;91.30
70074;DHT22;57445;51.058;3.698;2022-08-19T02:04:41;19.70;91.20
70074;DHT22;57445;51.058;3.698;2022-08-19T02:07:13;19.70;91.40
70074;DHT22;57445;51.058;3.698;2022-08-19T02:09:41;19.50;91.50
70074;DHT22;57445;51.058;3.698;2022-08-19T02:12:10;19.50;91.70
70074;DHT22;57445;51.058;3.698;2022-08-19T02:14:37;19.50;91.70
70074;DHT22;57445;51.058;3.698;2022-08-19T02:17:10;19.70;91.40
70074;DHT22;57445;51.058;3.698;2022-08-19T02:19:42;19.60;91.60
70074;DHT22;57445;51.058;3.698;2022-08-19T02:22:14;19.40;92.00
70074;DHT22;57445;51.058;3.698;2022-08-19T02:24:42;19.30;92.40
70074;DHT22;57445;51.058;3.698;2022-08-19T02:27:16;19.20;92.30
70074;DHT22;57445;51.058;3.698;2022-08-19T02:29:49;19.20;92.50
70074;DHT22;57445;51.058;3.698;2022-08-19T02:32:18;19.10;92.60
70074;DHT22;57445;51.058;3.698;2022-08-19T02:34:50;19.00;92.90
70074;DHT22;57445;51.058;3.698;2022-08-19T02:37:17;19.00;93.00
70074;DHT22;57445;51.058;3.698;2022-08-19T02:40:03;19.10;92.70
70074;DHT22;57445;51.058;3.698;2022-08-19T02:42:32;19.50;91.90
70074;DHT22;57445;51.058;3.698;2022-08-19T02:45:00;19.20;92.30
70074;DHT22;57445;51.058;3.698;2022-08-19T02:47:28;19.20;92.40
70074;DHT22;57445;51.058;3.698;2022-08-19T02:49:55;19.20;92.60
70074;DHT22;57445;51.058;3.698;2022-08-19T02:52:23;19.40;92.40
70074;DHT22;57445;51.058;3.698;2022-08-19T02:54:51;19.50;92.00
70074;DHT22;57445;51.058;3.698;2022-08-19T02:57:19;19.60;92.00
70074;DHT22;57445;51.058;3.698;2022-08-19T02:59:53;19.70;91.60
70074;DHT22;57445;51.058;3.698;2022-08-19T03:02:21;19.80;91.30
70074;DHT22;57445;51.058;3.698;2022-08-19T03:04:49;19.90;91.20
70074;DHT22;57445;51.058;3.698;2022-08-19T03:07:21;19.90;91.20
70074;DHT22;57445;51.058;3.698;2022-08-19T03:09:53;19.90;91.60
70074;DHT22;57445;51.058;3.698;2022-08-19T03:12:21;19.80;91.20
70074;DHT22;57445;51.058;3.698;2022-08-19T03:14:49;19.80;91.40
70074;DHT22;57445;51.058;3.698;2022-08-19T03:17:18;19.70;91.40
70074;DHT22;57445;51.058;3.698;2022-08-19T03:19:46;19.80;91.30
70074;DHT22;57445;51.058;3.698;2022-08-19T03:22:14;20.00;91.10
70074;DHT22;57445;51.058;3.698;2022-08-19T03:24:41;20.10;90.80
70074;DHT22;57445;51.058;3.698;2022-08-19T03:27:11;20.20;90.30
70074;DHT22;57445;51.058;3.698;2022-08-19T03:29:40;20.00;90.70
70074;DHT22;57445;51.058;3.698;2022-08-19T03:32:07;19.90;90.70
70074;DHT22;57445;51.058;3.698;2022-08-19T03:34:39;20.20;90.30
70074;DHT22;57445;51.058;3.698;2022-08-19T03:37:12;20.00;90.70
70074;DHT22;57445;51.058;3.698;2022-08-19T03:39:44;20.00;90.90
70074;DHT22;57445;51.058;3.698;2022-08-19T03:42:12;20.00;90.70
70074;DHT22;57445;51.058;3.698;2022-08-19T03:44:40;19.90;90.70
70074;DHT22;57445;51.058;3.698;2022-08-19T03:47:08;19.90;90.90
70074;DHT22;57445;51.058;3.698;2022-08-19T03:49:40;19.60;91.30
70074;DHT22;57445;51.058;3.698;2022-08-19T03:52:07;19.40;92.00
70074;DHT22;57445;51.058;3.698;2022-08-19T03:54:40;19.10;92.40
70074;DHT22;57445;51.058;3.698;2022-08-19T03:57:12;19.10;92.50
70074;DHT22;57445;51.058;3.698;2022-08-19T03:59:40;19.20;92.40
70074;DHT22;57445;51.058;3.698;2022-08-19T04:02:11;19.30;92.10
70074;DHT22;57445;51.058;3.698;2022-08-19T04:04:45;19.40;92.10
70074;DHT22;57445;51.058;3.698;2022-08-19T04:07:14;19.30;92.10
70074;DHT22;57445;51.058;3.698;2022-08-19T04:09:42;19.40;91.90
70074;DHT22;57445;51.058;3.698;2022-08-19T04:12:10;19.20;92.20
70074;DHT22;57445;51.058;3.698;2022-08-19T04:14:38;19.20;92.10
70074;DHT22;57445;51.058;3.698;2022-08-19T04:17:10;19.50;91.60
70074;DHT22;57445;51.058;3.698;2022-08-19T04:19:39;19.30;91.90
70074;DHT22;57445;51.058;3.698;2022-08-19T04:22:09;19.30;92.20
70074;DHT22;57445;51.058;3.698;2022-08-19T04:24:37;19.20;92.30
70074;DHT22;57445;51.058;3.698;2022-08-19T04:27:09;19.10;92.70
70074;DHT22;57445;51.058;3.698;2022-08-19T04:29:37;19.00;92.90
70074;DHT22;57445;51.058;3.698;2022-08-19T04:32:10;19.00;92.80
70074;DHT22;57445;51.058;3.698;2022-08-19T04:34:42;19.00;92.80
70074;DHT22;57445;51.058;3.698;2022-08-19T04:37:11;18.90;92.90
70074;DHT22;57445;51.058;3.698;2022-08-19T04:39:40;19.00;92.90
70074;DHT22;57445;51.058;3.698;2022-08-19T04:42:27;18.90;93.20
70074;DHT22;57445;51.058;3.698;2022-08-19T04:45:09;18.90;92.90
70074;DHT22;57445;51.058;3.698;2022-08-19T04:47:38;19.00;93.00
70074;DHT22;57445;51.058;3.698;2022-08-19T04:50:06;19.00;93.00
70074;DHT22;57445;51.058;3.698;2022-08-19T04:52:36;19.00;92.90
70074;DHT22;57445;51.058;3.698;2022-08-19T04:55:06;19.00;92.90
70074;DHT22;57445;51.058;3.698;2022-08-19T04:57:34;18.90;93.10
70074;DHT22;57445;51.058;3.698;2022-08-19T05:00:08;19.00;92.90
70074;DHT22;57445;51.058;3.698;2022-08-19T05:02:36;19.30;92.40
70074;DHT22;57445;51.058;3.698;2022-08-19T05:05:08;19.50;92.00
70074;DHT22;57445;51.058;3.698;2022-08-19T05:07:37;19.30;92.40
70074;DHT22;57445;51.058;3.698;2022-08-19T05:10:07;19.30;92.80
70074;DHT22;57445;51.058;3.698;2022-08-19T05:12:40;19.30;92.50
70074;DHT22;57445;51.058;3.698;2022-08-19T05:15:08;19.30;92.70
70074;DHT22;57445;51.058;3.698;2022-08-19T05:17:36;19.40;92.60
70074;DHT22;57445;51.058;3.698;2022-08-19T05:20:04;19.50;92.50
70074;DHT22;57445;51.058;3.698;2022-08-19T05:22:55;19.70;92.30
70074;DHT22;57445;51.058;3.698;2022-08-19T05:25:23;19.90;91.90
70074;DHT22;57445;51.058;3.698;2022-08-19T05:27:51;20.00;91.80
70074;DHT22;57445;51.058;3.698;2022-08-19T05:30:19;20.10;91.50
70074;DHT22;57445;51.058;3.698;2022-08-19T05:32:51;20.00;91.70
70074;DHT22;57445;51.058;3.698;2022-08-19T05:35:21;19.90;92.10
70074;DHT22;57445;51.058;3.698;2022-08-19T05:37:55;20.00;92.00
70074;DHT22;57445;51.058;3.698;2022-08-19T05:40:23;20.00;91.90
70074;DHT22;57445;51.058;3.698;2022-08-19T05:42:51;19.80;92.50
70074;DHT22;57445;51.058;3.698;2022-08-19T05:45:19;19.80;92.80
70074;DHT22;57445;51.058;3.698;2022-08-19T05:47:52;20.00;92.60
70074;DHT22;57445;51.058;3.698;2022-08-19T05:50:25;20.30;92.00
70074;DHT22;57445;51.058;3.698;2022-08-19T05:52:59;20.50;91.70
70074;DHT22;57445;51.058;3.698;2022-08-19T05:55:27;20.50;91.70
70074;DHT22;57445;51.058;3.698;2022-08-19T05:57:55;20.40;92.00
70074;DHT22;57445;51.058;3.698;2022-08-19T06:00:23;20.60;91.60
70074;DHT22;57445;51.058;3.698;2022-08-19T06:02:50;20.70;91.70
70074;DHT22;57445;51.058;3.698;2022-08-19T06:05:18;20.30;91.90
70074;DHT22;57445;51.058;3.698;2022-08-19T06:07:50;20.30;92.60
70074;DHT22;57445;51.058;3.698;2022-08-19T06:10:19;20.20;92.90
70074;DHT22;57445;51.058;3.698;2022-08-19T06:12:58;20.40;92.90
70074;DHT22;57445;51.058;3.698;2022-08-19T06:15:30;20.40;92.80
70074;DHT22;57445;51.058;3.698;2022-08-19T06:17:58;20.60;92.40
70074;DHT22;57445;51.058;3.698;2022-08-19T06:20:27;20.70;92.50
70074;DHT22;57445;51.058;3.698;2022-08-19T06:22:55;20.90;92.20
70074;DHT22;57445;51.058;3.698;2022-08-19T06:25:24;20.90;92.10
70074;DHT22;57445;51.058;3.698;2022-08-19T06:27:51;20.80;92.60
70074;DHT22;57445;51.058;3.698;2022-08-19T06:30:20;21.00;92.40
70074;DHT22;57445;51.058;3.698;2022-08-19T06:32:52;21.10;92.40
70074;DHT22;57445;51.058;3.698;2022-08-19T06:35:24;21.40;92.00
70074;DHT22;57445;51.058;3.698;2022-08-19T06:37:57;21.60;91.50
70074;DHT22;57445;51.058;3.698;2022-08-19T06:40:31;21.80;90.90
70074;DHT22;57445;51.058;3.698;2022-08-19T06:42:59;21.80;91.10
70074;DHT22;57445;51.058;3.698;2022-08-19T06:45:28;21.90;90.90
70074;DHT22;57445;51.058;3.698;2022-08-19T06:48:03;21.80;91.00
70074;DHT22;57445;51.058;3.698;2022-08-19T06:50:31;21.60;91.20
70074;DHT22;57445;51.058;3.698;2022-08-19T06:52:59;21.30;91.90
70074;DHT22;57445;51.058;3.698;2022-08-19T06:55:28;21.20;92.60
70074;DHT22;57445;51.058;3.698;2022-08-19T06:58:03;21.30;92.30
70074;DHT22;57445;51.058;3.698;2022-08-19T07:00:37;21.30;92.00
70074;DHT22;57445;51.058;3.698;2022-08-19T07:03:05;21.20;92.40
70074;DHT22;57445;51.058;3.698;2022-08-19T07:05:38;21.10;92.70
70074;DHT22;57445;51.058;3.698;2022-08-19T07:08:06;21.30;92.30
70074;DHT22;57445;51.058;3.698;2022-08-19T07:10:43;21.10;92.70
70074;DHT22;57445;51.058;3.698;2022-08-19T07:13:16;20.90;93.20
70074;DHT22;57445;51.058;3.698;2022-08-19T07:15:48;20.90;93.30
70074;DHT22;57445;51.058;3.698;2022-08-19T07:18:18;21.10;93.10
70074;DHT22;57445;51.058;3.698;2022-08-19T07:20:47;21.20;92.80
70074;DHT22;57445;51.058;3.698;2022-08-19T07:23:14;21.20;93.10
70074;DHT22;57445;51.058;3.698;2022-08-19T07:25:47;21.10;93.10
70074;DHT22;57445;51.058;3.698;2022-08-19T07:28:20;21.30;92.80
70074;DHT22;57445;51.058;3.698;2022-08-19T07:30:49;21.70;92.00
70074;DHT22;57445;51.058;3.698;2022-08-19T07:33:17;21.90;91.60
70074;DHT22;57445;51.058;3.698;2022-08-19T07:35:45;21.80;92.00
70074;DHT22;57445;51.058;3.698;2022-08-19T07:38:13;21.90;91.80
70074;DHT22;57445;51.058;3.698;2022-08-19T07:40:41;21.80;91.90
70074;DHT22;57445;51.058;3.698;2022-08-19T07:43:09;22.00;91.90
70074;DHT22;57445;51.058;3.698;2022-08-19T07:45:43;22.40;91.10
70074;DHT22;57445;51.058;3.698;2022-08-19T07:48:15;22.40;90.90
70074;DHT22;57445;51.058;3.698;2022-08-19T07:50:43;21.90;91.60
70074;DHT22;57445;51.058;3.698;2022-08-19T07:53:12;21.80;91.90
70074;DHT22;57445;51.058;3.698;2022-08-19T07:55:47;21.60;92.10
70074;DHT22;57445;51.058;3.698;2022-08-19T07:58:21;21.60;92.50
70074;DHT22;57445;51.058;3.698;2022-08-19T08:00:51;21.50;92.80
70074;DHT22;57445;51.058;3.698;2022-08-19T08:03:24;21.50;92.90
70074;DHT22;57445;51.058;3.698;2022-08-19T08:06:15;21.50;92.90
70074;DHT22;57445;51.058;3.698;2022-08-19T08:09:05;21.70;92.70
70074;DHT22;57445;51.058;3.698;2022-08-19T08:11:39;22.10;91.80
70074;DHT22;57445;51.058;3.698;2022-08-19T08:14:08;22.10;92.00
70074;DHT22;57445;51.058;3.698;2022-08-19T08:16:38;22.00;91.90
70074;DHT22;57445;51.058;3.698;2022-08-19T08:19:08;22.00;91.90
70074;DHT22;57445;51.058;3.698;2022-08-19T08:21:36;21.70;92.40
70074;DHT22;57445;51.058;3.698;2022-08-19T08:24:03;21.60;92.70
70074;DHT22;57445;51.058;3.698;2022-08-19T08:26:31;21.70;92.50
70074;DHT22;57445;51.058;3.698;2022-08-19T08:28:59;21.80;92.30
70074;DHT22;57445;51.058;3.698;2022-08-19T08:31:27;22.00;92.00
70074;DHT22;57445;51.058;3.698;2022-08-19T08:33:56;21.90;92.30
70074;DHT22;57445;51.058;3.698;2022-08-19T08:36:24;22.00;92.00
70074;DHT22;57445;51.058;3.698;2022-08-19T08:38:52;22.20;91.60
70074;DHT22;57445;51.058;3.698;2022-08-19T08:41:25;22.50;91.30
70074;DHT22;57445;51.058;3.698;2022-08-19T08:44:00;22.90;90.50
70074;DHT22;57445;51.058;3.698;2022-08-19T08:46:34;23.30;89.50
70074;DHT22;57445;51.058;3.698;2022-08-19T08:49:20;23.60;88.10
70074;DHT22;57445;51.058;3.698;2022-08-19T08:52:01;23.30;89.30
70074;DHT22;57445;51.058;3.698;2022-08-19T08:54:37;23.60;88.50
70074;DHT22;57445;51.058;3.698;2022-08-19T08:57:13;23.90;87.00
70074;DHT22;57445;51.058;3.698;2022-08-19T08:59:43;23.60;88.00
70074;DHT22;57445;51.058;3.698;2022-08-19T09:02:19;23.40;88.70
70074;DHT22;57445;51.058;3.698;2022-08-19T09:04:48;23.10;90.00
70074;DHT22;57445;51.058;3.698;2022-08-19T09:07:24;23.00;90.20
70074;DHT22;57445;51.058;3.698;2022-08-19T09:10:06;23.10;90.10
70074;DHT22;57445;51.058;3.698;2022-08-19T09:15:38;22.90;90.30
70074;DHT22;57445;51.058;3.698;2022-08-19T09:18:12;23.20;90.10
70074;DHT22;57445;51.058;3.698;2022-08-19T09:20:41;23.70;87.90
70074;DHT22;57445;51.058;3.698;2022-08-19T09:23:14;23.90;87.60
70074;DHT22;57445;51.058;3.698;2022-08-19T09:25:42;24.50;85.70
70074;DHT22;57445;51.058;3.698;2022-08-19T09:28:10;25.00;83.40
70074;DHT22;57445;51.058;3.698;2022-08-19T09:30:40;24.80;83.30
70074;DHT22;57445;51.058;3.698;2022-08-19T09:33:13;24.80;82.90
70074;DHT22;57445;51.058;3.698;2022-08-19T09:35:43;25.10;82.30
70074;DHT22;57445;51.058;3.698;2022-08-19T09:38:16;25.20;81.30
70074;DHT22;57445;51.058;3.698;2022-08-19T09:40:43;24.70;82.60
70074;DHT22;57445;51.058;3.698;2022-08-19T09:43:11;24.50;83.50
70074;DHT22;57445;51.058;3.698;2022-08-19T09:45:39;24.20;84.50
70074;DHT22;57445;51.058;3.698;2022-08-19T09:48:06;24.30;84.10
70074;DHT22;57445;51.058;3.698;2022-08-19T09:50:34;24.70;83.40
70074;DHT22;57445;51.058;3.698;2022-08-19T09:53:10;25.10;82.10
70074;DHT22;57445;51.058;3.698;2022-08-19T09:55:43;25.40;79.90
70074;DHT22;57445;51.058;3.698;2022-08-19T09:58:11;25.30;80.20
70074;DHT22;57445;51.058;3.698;2022-08-19T10:00:39;24.90;80.50
70074;DHT22;57445;51.058;3.698;2022-08-19T10:03:07;24.30;82.60
70074;DHT22;57445;51.058;3.698;2022-08-19T10:05:35;24.30;83.10
70074;DHT22;57445;51.058;3.698;2022-08-19T10:08:21;23.90;84.70
70074;DHT22;57445;51.058;3.698;2022-08-19T10:10:49;24.00;84.50
70074;DHT22;57445;51.058;3.698;2022-08-19T10:13:19;24.40;82.90
70074;DHT22;57445;51.058;3.698;2022-08-19T10:15:50;24.00;84.10
70074;DHT22;57445;51.058;3.698;2022-08-19T10:18:20;24.20;83.80
70074;DHT22;57445;51.058;3.698;2022-08-19T10:20:49;24.00;85.00
70074;DHT22;57445;51.058;3.698;2022-08-19T10:23:20;23.90;85.80
70074;DHT22;57445;51.058;3.698;2022-08-19T10:25:49;23.80;86.00
70074;DHT22;57445;51.058;3.698;2022-08-19T10:28:19;24.50;84.40
70074;DHT22;57445;51.058;3.698;2022-08-19T10:30:47;25.20;81.50
70074;DHT22;57445;51.058;3.698;2022-08-19T10:33:15;25.70;79.80
70074;DHT22;57445;51.058;3.698;2022-08-19T10:35:47;25.60;78.90
70074;DHT22;57445;51.058;3.698;2022-08-19T10:38:20;25.20;80.40
70074;DHT22;57445;51.058;3.698;2022-08-19T10:40:48;25.20;80.00
70074;DHT22;57445;51.058;3.698;2022-08-19T10:43:19;25.10;80.40
70074;DHT22;57445;51.058;3.698;2022-08-19T10:45:52;25.10;80.50
70074;DHT22;57445;51.058;3.698;2022-08-19T10:48:21;24.80;81.20
70074;DHT22;57445;51.058;3.698;2022-08-19T10:50:48;25.40;79.90
70074;DHT22;57445;51.058;3.698;2022-08-19T10:53:38;25.40;79.80
70074;DHT22;57445;51.058;3.698;2022-08-19T10:56:07;25.30;79.40
70074;DHT22;57445;51.058;3.698;2022-08-19T10:58:56;25.20;79.80
70074;DHT22;57445;51.058;3.698;2022-08-19T11:01:30;25.00;80.40
70074;DHT22;57445;51.058;3.698;2022-08-19T11:04:05;24.80;80.90
70074;DHT22;57445;51.058;3.698;2022-08-19T11:06:35;25.00;80.90
70074;DHT22;57445;51.058;3.698;2022-08-19T11:09:09;25.10;80.60
70074;DHT22;57445;51.058;3.698;2022-08-19T11:11:43;25.30;80.10
70074;DHT22;57445;51.058;3.698;2022-08-19T11:14:13;25.50;79.40
70074;DHT22;57445;51.058;3.698;2022-08-19T11:16:46;25.50;79.30
70074;DHT22;57445;51.058;3.698;2022-08-19T11:19:15;25.80;78.40
70074;DHT22;57445;51.058;3.698;2022-08-19T11:21:48;26.50;76.50
70074;DHT22;57445;51.058;3.698;2022-08-19T11:24:19;27.00;74.70
70074;DHT22;57445;51.058;3.698;2022-08-19T11:26:54;26.50;75.10
70074;DHT22;57445;51.058;3.698;2022-08-19T11:29:25;26.00;76.80
70074;DHT22;57445;51.058;3.698;2022-08-19T11:31:54;25.20;79.50
70074;DHT22;57445;51.058;3.698;2022-08-19T11:34:27;25.40;79.70
70074;DHT22;57445;51.058;3.698;2022-08-19T11:36:56;25.90;78.50
70074;DHT22;57445;51.058;3.698;2022-08-19T11:39:29;26.30;76.60
70074;DHT22;57445;51.058;3.698;2022-08-19T11:42:03;26.80;75.00
70074;DHT22;57445;51.058;3.698;2022-08-19T11:44:52;27.20;73.30
70074;DHT22;57445;51.058;3.698;2022-08-19T11:47:24;27.10;73.70
70074;DHT22;57445;51.058;3.698;2022-08-19T11:49:58;26.80;74.60
70074;DHT22;57445;51.058;3.698;2022-08-19T11:52:27;26.50;75.30
70074;DHT22;57445;51.058;3.698;2022-08-19T11:54:58;26.00;76.50
70074;DHT22;57445;51.058;3.698;2022-08-19T11:57:31;25.20;79.40
70074;DHT22;57445;51.058;3.698;2022-08-19T11:59:59;24.70;81.60
70074;DHT22;57445;51.058;3.698;2022-08-19T12:02:32;24.90;80.50
70074;DHT22;57445;51.058;3.698;2022-08-19T12:05:05;24.90;80.60
70074;DHT22;57445;51.058;3.698;2022-08-19T12:07:38;24.90;81.20
70074;DHT22;57445;51.058;3.698;2022-08-19T12:10:12;25.50;79.40
70074;DHT22;57445;51.058;3.698;2022-08-19T12:12:46;26.20;77.00
70074;DHT22;57445;51.058;3.698;2022-08-19T12:15:14;27.00;74.40
70074;DHT22;57445;51.058;3.698;2022-08-19T12:17:43;27.50;73.00
70074;DHT22;57445;51.058;3.698;2022-08-19T12:20:12;27.20;72.30
70074;DHT22;57445;51.058;3.698;2022-08-19T12:22:42;26.40;74.90
70074;DHT22;57445;51.058;3.698;2022-08-19T12:25:16;26.10;76.30
70074;DHT22;57445;51.058;3.698;2022-08-19T12:27:44;26.50;75.20
70074;DHT22;57445;51.058;3.698;2022-08-19T12:30:13;27.30;73.50
70074;DHT22;57445;51.058;3.698;2022-08-19T12:32:41;27.90;71.30
70074;DHT22;57445;51.058;3.698;2022-08-19T12:35:09;27.60;72.10
70074;DHT22;57445;51.058;3.698;2022-08-19T12:37:39;27.70;71.80
70074;DHT22;57445;51.058;3.698;2022-08-19T12:40:12;28.00;70.90
70074;DHT22;57445;51.058;3.698;2022-08-19T12:42:42;27.80;70.60
70074;DHT22;57445;51.058;3.698;2022-08-19T12:45:10;27.30;72.70
70074;DHT22;57445;51.058;3.698;2022-08-19T12:47:39;27.20;72.50
70074;DHT22;57445;51.058;3.698;2022-08-19T12:50:11;27.30;73.60
70074;DHT22;57445;51.058;3.698;2022-08-19T12:52:39;28.30;71.10
70074;DHT22;57445;51.058;3.698;2022-08-19T12:55:13;28.90;69.40
70074;DHT22;57445;51.058;3.698;2022-08-19T12:57:42;29.40;68.00
70074;DHT22;57445;51.058;3.698;2022-08-19T13:00:13;29.50;66.70
70074;DHT22;57445;51.058;3.698;2022-08-19T13:02:44;29.70;67.30
70074;DHT22;57445;51.058;3.698;2022-08-19T13:05:14;29.60;66.80
70074;DHT22;57445;51.058;3.698;2022-08-19T13:07:43;30.00;66.40
70074;DHT22;57445;51.058;3.698;2022-08-19T13:10:15;30.10;65.90
70074;DHT22;57445;51.058;3.698;2022-08-19T13:12:51;29.80;65.90
70074;DHT22;57445;51.058;3.698;2022-08-19T13:15:23;29.50;66.60
70074;DHT22;57445;51.058;3.698;2022-08-19T13:17:52;28.80;68.60
70074;DHT22;57445;51.058;3.698;2022-08-19T13:20:22;27.40;73.60
70074;DHT22;57445;51.058;3.698;2022-08-19T13:22:54;26.10;81.70
70074;DHT22;57445;51.058;3.698;2022-08-19T13:25:28;24.40;90.00
70074;DHT22;57445;51.058;3.698;2022-08-19T13:27:57;23.50;91.80
70074;DHT22;57445;51.058;3.698;2022-08-19T13:30:24;23.00;92.40
70074;DHT22;57445;51.058;3.698;2022-08-19T13:33:09;22.60;93.60
70074;DHT22;57445;51.058;3.698;2022-08-19T13:35:44;22.50;93.90
70074;DHT22;57445;51.058;3.698;2022-08-19T13:38:13;22.50;93.90
70074;DHT22;57445;51.058;3.698;2022-08-19T13:40:48;22.70;93.30
70074;DHT22;57445;51.058;3.698;2022-08-19T13:43:20;23.10;93.00
70074;DHT22;57445;51.058;3.698;2022-08-19T13:45:54;23.30;91.80
70074;DHT22;57445;51.058;3.698;2022-08-19T13:48:23;23.30;91.70
70074;DHT22;57445;51.058;3.698;2022-08-19T13:50:52;23.50;91.70
70074;DHT22;57445;51.058;3.698;2022-08-19T13:53:20;23.70;91.70
70074;DHT22;57445;51.058;3.698;2022-08-19T13:55:48;24.10;91.00
70074;DHT22;57445;51.058;3.698;2022-08-19T13:58:16;24.10;90.80
70074;DHT22;57445;51.058;3.698;2022-08-19T14:00:48;24.70;90.80
70074;DHT22;57445;51.058;3.698;2022-08-19T14:03:15;25.10;89.70
70074;DHT22;57445;51.058;3.698;2022-08-19T14:05:43;25.70;86.50
70074;DHT22;57445;51.058;3.698;2022-08-19T14:08:12;26.10;84.80
70074;DHT22;57445;51.058;3.698;2022-08-19T14:10:40;25.60;86.20
70074;DHT22;57445;51.058;3.698;2022-08-19T14:13:13;25.10;86.70
70074;DHT22;57445;51.058;3.698;2022-08-19T14:15:41;24.90;88.00
70074;DHT22;57445;51.058;3.698;2022-08-19T14:18:10;24.80;88.60
70074;DHT22;57445;51.058;3.698;2022-08-19T14:20:38;25.10;87.50
70074;DHT22;57445;51.058;3.698;2022-08-19T14:23:06;25.10;87.90
70074;DHT22;57445;51.058;3.698;2022-08-19T14:25:39;24.80;89.40
70074;DHT22;57445;51.058;3.698;2022-08-19T14:28:11;25.00;88.80
70074;DHT22;57445;51.058;3.698;2022-08-19T14:30:39;25.20;87.20
70074;DHT22;57445;51.058;3.698;2022-08-19T14:33:12;25.10;87.40
70074;DHT22;57445;51.058;3.698;2022-08-19T14:35:40;25.30;88.00
70074;DHT22;57445;51.058;3.698;2022-08-19T14:38:16;25.80;86.00
70074;DHT22;57445;51.058;3.698;2022-08-19T14:40:44;26.10;85.00
70074;DHT22;57445;51.058;3.698;2022-08-19T14:43:12;26.60;83.40
70074;DHT22;57445;51.058;3.698;2022-08-19T14:45:45;26.50;81.30
70074;DHT22;57445;51.058;3.698;2022-08-19T14:48:18;26.00;82.50
70074;DHT22;57445;51.058;3.698;2022-08-19T14:50:47;25.80;84.80
70074;DHT22;57445;51.058;3.698;2022-08-19T14:53:20;25.70;84.50
70074;DHT22;57445;51.058;3.698;2022-08-19T14:55:48;25.50;85.30
70074;DHT22;57445;51.058;3.698;2022-08-19T14:58:16;25.60;86.20
70074;DHT22;57445;51.058;3.698;2022-08-19T15:00:44;26.20;83.90
70074;DHT22;57445;51.058;3.698;2022-08-19T15:03:12;26.20;83.30
70074;DHT22;57445;51.058;3.698;2022-08-19T15:05:41;26.50;82.30
70074;DHT22;57445;51.058;3.698;2022-08-19T15:08:09;26.20;83.60
70074;DHT22;57445;51.058;3.698;2022-08-19T15:10:41;25.90;83.10
70074;DHT22;57445;51.058;3.698;2022-08-19T15:13:08;26.30;82.00
70074;DHT22;57445;51.058;3.698;2022-08-19T15:15:41;26.90;80.90
70074;DHT22;57445;51.058;3.698;2022-08-19T15:18:08;26.70;80.60
70074;DHT22;57445;51.058;3.698;2022-08-19T15:20:37;26.30;81.60
70074;DHT22;57445;51.058;3.698;2022-08-19T15:23:11;26.10;82.60
70074;DHT22;57445;51.058;3.698;2022-08-19T15:25:40;26.00;83.60
70074;DHT22;57445;51.058;3.698;2022-08-19T15:28:09;26.40;83.00
70074;DHT22;57445;51.058;3.698;2022-08-19T15:30:42;26.70;80.70
70074;DHT22;57445;51.058;3.698;2022-08-19T15:33:15;26.70;79.70
70074;DHT22;57445;51.058;3.698;2022-08-19T15:35:44;26.60;79.80
70074;DHT22;57445;51.058;3.698;2022-08-19T15:38:13;26.50;80.50
70074;DHT22;57445;51.058;3.698;2022-08-19T15:40:50;26.40;79.20
70074;DHT22;57445;51.058;3.698;2022-08-19T15:43:22;26.20;80.60
70074;DHT22;57445;51.058;3.698;2022-08-19T15:45:49;26.00;81.10
70074;DHT22;57445;51.058;3.698;2022-08-19T15:48:17;25.50;83.40
70074;DHT22;57445;51.058;3.698;2022-08-19T15:50:45;25.20;84.40
70074;DHT22;57445;51.058;3.698;2022-08-19T15:53:18;25.20;84.60
70074;DHT22;57445;51.058;3.698;2022-08-19T15:55:51;25.20;85.00